sensor_id;sensor_type;location;lat;lon;timestamp;P1;durP1;ratioP1;P2;durP2;ratioP2
48727;SDS011;34527;45.618;5.130;2022-12-18T00:00:59;75.80;;;35.15;;
48727;SDS011;34527;45.618;5.130;2022-12-18T00:03:25;89.53;;;39.45;;
48727;SDS011;34527;45.618;5.130;2022-12-18T00:05:51;82.53;;;37.00;;
48727;SDS011;34527;45.618;5.130;2022-12-18T00:08:18;85.20;;;38.47;;
48727;SDS011;34527;45.618;5.130;2022-12-18T00:10:44;83.75;;;39.35;;
48727;SDS011;34527;45.618;5.130;2022-12-18T00:13:11;97.75;;;43.25;;
48727;SDS011;34527;45.618;5.130;2022-12-18T00:15:38;92.53;;;40.65;;
48727;SDS011;34527;45.618;5.130;2022-12-18T00:18:05;90.72;;;39.70;;
48727;SDS011;34527;45.618;5.130;2022-12-18T00:20:31;92.20;;;39.05;;
48727;SDS011;34527;45.618;5.130;2022-12-18T00:23:05;79.75;;;36.78;;
48727;SDS011;34527;45.618;5.130;2022-12-18T00:25:32;87.13;;;38.28;;
48727;SDS011;34527;45.618;5.130;2022-12-18T00:27:59;91.80;;;39.47;;
48727;SDS011;34527;45.618;5.130;2022-12-18T00:30:26;97.55;;;42.10;;
48727;SDS011;34527;45.618;5.130;2022-12-18T00:32:52;93.70;;;40.55;;
48727;SDS011;34527;45.618;5.130;2022-12-18T00:35:18;86.43;;;37.53;;
48727;SDS011;34527;45.618;5.130;2022-12-18T00:37:44;90.78;;;38.80;;
48727;SDS011;34527;45.618;5.130;2022-12-18T00:40:09;87.25;;;37.60;;
48727;SDS011;34527;45.618;5.130;2022-12-18T00:42:36;95.03;;;39.53;;
48727;SDS011;34527;45.618;5.130;2022-12-18T00:45:20;96.97;;;37.33;;
48727;SDS011;34527;45.618;5.130;2022-12-18T00:47:46;92.03;;;37.78;;
48727;SDS011;34527;45.618;5.130;2022-12-18T00:50:12;87.10;;;39.55;;
48727;SDS011;34527;45.618;5.130;2022-12-18T00:52:38;88.65;;;37.80;;
48727;SDS011;34527;45.618;5.130;2022-12-18T00:55:04;93.90;;;36.28;;
48727;SDS011;34527;45.618;5.130;2022-12-18T00:57:30;87.32;;;36.67;;
48727;SDS011;34527;45.618;5.130;2022-12-18T00:59:56;90.50;;;37.55;;
48727;SDS011;34527;45.618;5.130;2022-12-18T01:02:22;82.35;;;35.72;;
48727;SDS011;34527;45.618;5.130;2022-12-18T01:04:48;92.25;;;37.72;;
48727;SDS011;34527;45.618;5.130;2022-12-18T01:07:14;93.65;;;37.35;;
48727;SDS011;34527;45.618;5.130;2022-12-18T01:09:40;98.07;;;38.70;;
48727;SDS011;34527;45.618;5.130;2022-12-18T01:12:06;96.05;;;38.53;;
48727;SDS011;34527;45.618;5.130;2022-12-18T01:14:31;96.72;;;37.47;;
48727;SDS011;34527;45.618;5.130;2022-12-18T01:16:57;92.80;;;38.38;;
48727;SDS011;34527;45.618;5.130;2022-12-18T01:19:23;84.70;;;36.35;;
48727;SDS011;34527;45.618;5.130;2022-12-18T01:21:49;87.07;;;37.10;;
48727;SDS011;34527;45.618;5.130;2022-12-18T01:24:15;75.25;;;34.55;;
48727;SDS011;34527;45.618;5.130;2022-12-18T01:26:41;85.30;;;35.67;;
48727;SDS011;34527;45.618;5.130;2022-12-18T01:29:07;85.13;;;34.05;;
48727;SDS011;34527;45.618;5.130;2022-12-18T01:31:33;80.35;;;34.88;;
48727;SDS011;34527;45.618;5.130;2022-12-18T01:34:02;80.55;;;33.25;;
48727;SDS011;34527;45.618;5.130;2022-12-18T01:36:34;79.97;;;34.05;;
48727;SDS011;34527;45.618;5.130;2022-12-18T01:39:03;84.57;;;34.80;;
48727;SDS011;34527;45.618;5.130;2022-12-18T01:41:32;79.28;;;32.78;;
48727;SDS011;34527;45.618;5.130;2022-12-18T01:49:53;74.03;;;33.35;;
48727;SDS011;34527;45.618;5.130;2022-12-18T01:52:20;81.55;;;32.88;;
48727;SDS011;34527;45.618;5.130;2022-12-18T01:54:47;79.45;;;32.17;;
48727;SDS011;34527;45.618;5.130;2022-12-18T01:57:15;79.78;;;33.45;;
48727;SDS011;34527;45.618;5.130;2022-12-18T01:59:41;96.80;;;39.00;;
48727;SDS011;34527;45.618;5.130;2022-12-18T02:02:10;128.93;;;50.90;;
48727;SDS011;34527;45.618;5.130;2022-12-18T02:04:36;91.38;;;40.00;;
48727;SDS011;34527;45.618;5.130;2022-12-18T02:12:36;144.57;;;56.33;;
48727;SDS011;34527;45.618;5.130;2022-12-18T02:15:18;96.55;;;41.47;;
48727;SDS011;34527;45.618;5.130;2022-12-18T02:18:06;81.70;;;35.90;;
48727;SDS011;34527;45.618;5.130;2022-12-18T02:20:46;82.00;;;35.72;;
48727;SDS011;34527;45.618;5.130;2022-12-18T02:28:42;81.93;;;35.30;;
48727;SDS011;34527;45.618;5.130;2022-12-18T02:31:24;82.93;;;36.38;;
48727;SDS011;34527;45.618;5.130;2022-12-18T02:33:55;84.75;;;36.20;;
48727;SDS011;34527;45.618;5.130;2022-12-18T02:36:23;108.72;;;44.38;;
48727;SDS011;34527;45.618;5.130;2022-12-18T02:38:51;97.43;;;40.80;;
48727;SDS011;34527;45.618;5.130;2022-12-18T02:41:18;90.30;;;39.20;;
48727;SDS011;34527;45.618;5.130;2022-12-18T02:43:48;91.18;;;39.15;;
48727;SDS011;34527;45.618;5.130;2022-12-18T02:46:32;96.50;;;39.28;;
48727;SDS011;34527;45.618;5.130;2022-12-18T02:54:57;85.18;;;35.42;;
48727;SDS011;34527;45.618;5.130;2022-12-18T02:57:36;78.03;;;33.75;;
48727;SDS011;34527;45.618;5.130;2022-12-18T03:00:19;76.85;;;33.65;;
48727;SDS011;34527;45.618;5.130;2022-12-18T03:02:56;74.10;;;31.65;;
48727;SDS011;34527;45.618;5.130;2022-12-18T03:08:20;71.88;;;32.13;;
48727;SDS011;34527;45.618;5.130;2022-12-18T03:10:50;76.35;;;33.08;;
48727;SDS011;34527;45.618;5.130;2022-12-18T03:13:27;82.63;;;33.70;;
48727;SDS011;34527;45.618;5.130;2022-12-18T03:15:59;85.30;;;34.45;;
48727;SDS011;34527;45.618;5.130;2022-12-18T03:18:29;81.82;;;35.45;;
48727;SDS011;34527;45.618;5.130;2022-12-18T03:21:02;74.93;;;33.45;;
48727;SDS011;34527;45.618;5.130;2022-12-18T03:23:33;79.88;;;34.08;;
48727;SDS011;34527;45.618;5.130;2022-12-18T03:26:05;82.03;;;34.88;;
48727;SDS011;34527;45.618;5.130;2022-12-18T03:28:36;80.90;;;33.92;;
48727;SDS011;34527;45.618;5.130;2022-12-18T03:31:05;70.80;;;32.90;;
48727;SDS011;34527;45.618;5.130;2022-12-18T03:33:37;78.30;;;33.72;;
48727;SDS011;34527;45.618;5.130;2022-12-18T03:36:04;76.40;;;34.35;;
48727;SDS011;34527;45.618;5.130;2022-12-18T03:38:31;72.95;;;32.28;;
48727;SDS011;34527;45.618;5.130;2022-12-18T03:46:47;88.10;;;37.13;;
48727;SDS011;34527;45.618;5.130;2022-12-18T03:49:34;80.60;;;34.47;;
48727;SDS011;34527;45.618;5.130;2022-12-18T03:52:11;80.28;;;34.33;;
48727;SDS011;34527;45.618;5.130;2022-12-18T03:54:45;64.18;;;29.65;;
48727;SDS011;34527;45.618;5.130;2022-12-18T03:57:22;72.25;;;33.30;;
48727;SDS011;34527;45.618;5.130;2022-12-18T03:59:52;77.57;;;34.10;;
48727;SDS011;34527;45.618;5.130;2022-12-18T04:02:22;75.72;;;33.85;;
48727;SDS011;34527;45.618;5.130;2022-12-18T04:04:50;77.05;;;33.40;;
48727;SDS011;34527;45.618;5.130;2022-12-18T04:07:18;69.82;;;32.75;;
48727;SDS011;34527;45.618;5.130;2022-12-18T04:09:46;69.90;;;30.88;;
48727;SDS011;34527;45.618;5.130;2022-12-18T04:12:13;68.05;;;30.60;;
48727;SDS011;34527;45.618;5.130;2022-12-18T04:14:39;69.60;;;31.55;;
48727;SDS011;34527;45.618;5.130;2022-12-18T04:17:05;75.60;;;31.73;;
48727;SDS011;34527;45.618;5.130;2022-12-18T04:19:31;68.18;;;30.50;;
48727;SDS011;34527;45.618;5.130;2022-12-18T04:21:57;66.28;;;31.13;;
48727;SDS011;34527;45.618;5.130;2022-12-18T04:24:22;73.65;;;31.95;;
48727;SDS011;34527;45.618;5.130;2022-12-18T04:26:48;71.78;;;32.55;;
48727;SDS011;34527;45.618;5.130;2022-12-18T04:29:14;65.95;;;30.38;;
48727;SDS011;34527;45.618;5.130;2022-12-18T04:31:40;66.28;;;30.65;;
48727;SDS011;34527;45.618;5.130;2022-12-18T04:34:06;60.33;;;28.20;;
48727;SDS011;34527;45.618;5.130;2022-12-18T04:36:32;60.10;;;28.55;;
48727;SDS011;34527;45.618;5.130;2022-12-18T04:38:57;62.15;;;28.23;;
48727;SDS011;34527;45.618;5.130;2022-12-18T04:41:23;64.45;;;29.17;;
48727;SDS011;34527;45.618;5.130;2022-12-18T04:43:49;75.68;;;34.22;;
48727;SDS011;34527;45.618;5.130;2022-12-18T04:46:15;70.43;;;30.58;;
48727;SDS011;34527;45.618;5.130;2022-12-18T04:48:41;76.68;;;34.80;;
48727;SDS011;34527;45.618;5.130;2022-12-18T04:51:07;69.63;;;32.78;;
48727;SDS011;34527;45.618;5.130;2022-12-18T04:53:33;74.55;;;31.20;;
48727;SDS011;34527;45.618;5.130;2022-12-18T04:56:17;57.22;;;27.77;;
48727;SDS011;34527;45.618;5.130;2022-12-18T04:58:43;58.65;;;27.80;;
48727;SDS011;34527;45.618;5.130;2022-12-18T05:01:10;65.55;;;28.17;;
48727;SDS011;34527;45.618;5.130;2022-12-18T05:03:37;61.92;;;29.45;;
48727;SDS011;34527;45.618;5.130;2022-12-18T05:06:04;64.03;;;28.80;;
48727;SDS011;34527;45.618;5.130;2022-12-18T05:08:30;67.88;;;30.02;;
48727;SDS011;34527;45.618;5.130;2022-12-18T05:11:00;64.10;;;29.00;;
48727;SDS011;34527;45.618;5.130;2022-12-18T05:13:27;51.85;;;28.00;;
48727;SDS011;34527;45.618;5.130;2022-12-18T05:15:54;57.33;;;27.23;;
48727;SDS011;34527;45.618;5.130;2022-12-18T05:18:20;61.60;;;29.25;;
48727;SDS011;34527;45.618;5.130;2022-12-18T05:20:47;86.10;;;38.60;;
48727;SDS011;34527;45.618;5.130;2022-12-18T05:23:14;84.35;;;39.60;;
48727;SDS011;34527;45.618;5.130;2022-12-18T05:25:39;79.38;;;37.15;;
48727;SDS011;34527;45.618;5.130;2022-12-18T05:28:05;70.45;;;32.05;;
48727;SDS011;34527;45.618;5.130;2022-12-18T05:30:31;76.75;;;34.90;;
48727;SDS011;34527;45.618;5.130;2022-12-18T05:32:57;63.38;;;31.73;;
48727;SDS011;34527;45.618;5.130;2022-12-18T05:35:23;59.30;;;28.40;;
48727;SDS011;34527;45.618;5.130;2022-12-18T05:37:49;58.22;;;28.30;;
48727;SDS011;34527;45.618;5.130;2022-12-18T05:40:14;55.38;;;26.85;;
48727;SDS011;34527;45.618;5.130;2022-12-18T05:42:40;51.88;;;25.23;;
48727;SDS011;34527;45.618;5.130;2022-12-18T05:45:06;54.25;;;27.20;;
48727;SDS011;34527;45.618;5.130;2022-12-18T05:47:32;54.13;;;27.35;;
48727;SDS011;34527;45.618;5.130;2022-12-18T05:49:58;56.58;;;26.75;;
48727;SDS011;34527;45.618;5.130;2022-12-18T05:52:24;59.88;;;27.48;;
48727;SDS011;34527;45.618;5.130;2022-12-18T05:54:50;60.03;;;27.70;;
48727;SDS011;34527;45.618;5.130;2022-12-18T05:57:16;96.43;;;44.08;;
48727;SDS011;34527;45.618;5.130;2022-12-18T05:59:42;63.95;;;28.67;;
48727;SDS011;34527;45.618;5.130;2022-12-18T06:02:07;56.30;;;27.85;;
48727;SDS011;34527;45.618;5.130;2022-12-18T06:04:33;50.80;;;25.80;;
48727;SDS011;34527;45.618;5.130;2022-12-18T06:06:59;53.50;;;25.73;;
48727;SDS011;34527;45.618;5.130;2022-12-18T06:09:25;47.15;;;25.35;;
48727;SDS011;34527;45.618;5.130;2022-12-18T06:11:51;61.03;;;27.95;;
48727;SDS011;34527;45.618;5.130;2022-12-18T06:14:17;54.22;;;26.52;;
48727;SDS011;34527;45.618;5.130;2022-12-18T06:16:43;53.60;;;27.45;;
48727;SDS011;34527;45.618;5.130;2022-12-18T06:19:12;59.08;;;27.75;;
48727;SDS011;34527;45.618;5.130;2022-12-18T06:21:40;57.45;;;27.40;;
48727;SDS011;34527;45.618;5.130;2022-12-18T06:24:06;55.67;;;25.20;;
48727;SDS011;34527;45.618;5.130;2022-12-18T06:26:32;53.15;;;26.27;;
48727;SDS011;34527;45.618;5.130;2022-12-18T06:28:59;55.55;;;25.67;;
48727;SDS011;34527;45.618;5.130;2022-12-18T06:31:25;51.20;;;25.75;;
48727;SDS011;34527;45.618;5.130;2022-12-18T06:33:51;55.80;;;26.05;;
48727;SDS011;34527;45.618;5.130;2022-12-18T06:36:17;53.83;;;24.60;;
48727;SDS011;34527;45.618;5.130;2022-12-18T06:38:43;51.38;;;23.83;;
48727;SDS011;34527;45.618;5.130;2022-12-18T06:41:13;54.70;;;25.63;;
48727;SDS011;34527;45.618;5.130;2022-12-18T06:43:43;58.28;;;25.90;;
48727;SDS011;34527;45.618;5.130;2022-12-18T06:46:10;64.10;;;28.10;;
48727;SDS011;34527;45.618;5.130;2022-12-18T06:48:36;65.65;;;29.10;;
48727;SDS011;34527;45.618;5.130;2022-12-18T06:51:02;63.00;;;28.65;;
48727;SDS011;34527;45.618;5.130;2022-12-18T06:53:28;59.72;;;27.75;;
48727;SDS011;34527;45.618;5.130;2022-12-18T06:56:01;50.50;;;24.88;;
48727;SDS011;34527;45.618;5.130;2022-12-18T07:01:04;58.90;;;24.73;;
48727;SDS011;34527;45.618;5.130;2022-12-18T07:03:32;62.78;;;27.35;;
48727;SDS011;34527;45.618;5.130;2022-12-18T07:05:58;57.15;;;26.08;;
48727;SDS011;34527;45.618;5.130;2022-12-18T07:08:24;49.65;;;24.45;;
48727;SDS011;34527;45.618;5.130;2022-12-18T07:10:50;80.35;;;37.17;;
48727;SDS011;34527;45.618;5.130;2022-12-18T07:13:16;73.03;;;34.08;;
48727;SDS011;34527;45.618;5.130;2022-12-18T07:15:43;59.60;;;27.65;;
48727;SDS011;34527;45.618;5.130;2022-12-18T07:18:09;51.80;;;25.30;;
48727;SDS011;34527;45.618;5.130;2022-12-18T07:20:35;52.55;;;25.52;;
48727;SDS011;34527;45.618;5.130;2022-12-18T07:23:02;88.03;;;38.97;;
48727;SDS011;34527;45.618;5.130;2022-12-18T07:25:28;194.15;;;79.20;;
48727;SDS011;34527;45.618;5.130;2022-12-18T07:27:54;117.13;;;49.95;;
48727;SDS011;34527;45.618;5.130;2022-12-18T07:30:20;119.78;;;51.35;;
48727;SDS011;34527;45.618;5.130;2022-12-18T07:32:46;78.70;;;34.42;;
48727;SDS011;34527;45.618;5.130;2022-12-18T07:35:12;63.20;;;31.08;;
48727;SDS011;34527;45.618;5.130;2022-12-18T07:37:37;65.68;;;31.88;;
48727;SDS011;34527;45.618;5.130;2022-12-18T07:40:03;89.05;;;40.80;;
48727;SDS011;34527;45.618;5.130;2022-12-18T07:42:30;79.25;;;36.70;;
48727;SDS011;34527;45.618;5.130;2022-12-18T07:44:56;78.72;;;38.40;;
48727;SDS011;34527;45.618;5.130;2022-12-18T07:47:22;81.03;;;37.83;;
48727;SDS011;34527;45.618;5.130;2022-12-18T07:49:48;83.13;;;37.72;;
48727;SDS011;34527;45.618;5.130;2022-12-18T07:52:14;60.08;;;29.42;;
48727;SDS011;34527;45.618;5.130;2022-12-18T07:54:40;63.83;;;30.63;;
48727;SDS011;34527;45.618;5.130;2022-12-18T07:57:06;72.00;;;34.33;;
48727;SDS011;34527;45.618;5.130;2022-12-18T07:59:32;68.78;;;31.42;;
48727;SDS011;34527;45.618;5.130;2022-12-18T08:01:58;76.40;;;34.60;;
48727;SDS011;34527;45.618;5.130;2022-12-18T08:04:24;65.68;;;28.83;;
48727;SDS011;34527;45.618;5.130;2022-12-18T08:06:50;54.70;;;27.20;;
48727;SDS011;34527;45.618;5.130;2022-12-18T08:09:17;61.38;;;27.98;;
48727;SDS011;34527;45.618;5.130;2022-12-18T08:11:43;58.83;;;28.05;;
48727;SDS011;34527;45.618;5.130;2022-12-18T08:14:09;58.95;;;27.00;;
48727;SDS011;34527;45.618;5.130;2022-12-18T08:16:35;63.10;;;27.48;;
48727;SDS011;34527;45.618;5.130;2022-12-18T08:19:01;56.70;;;26.70;;
48727;SDS011;34527;45.618;5.130;2022-12-18T08:21:28;49.00;;;24.05;;
48727;SDS011;34527;45.618;5.130;2022-12-18T08:23:56;51.45;;;24.20;;
48727;SDS011;34527;45.618;5.130;2022-12-18T08:26:23;52.63;;;24.88;;
48727;SDS011;34527;45.618;5.130;2022-12-18T08:28:50;55.05;;;25.17;;
48727;SDS011;34527;45.618;5.130;2022-12-18T08:31:17;49.85;;;25.00;;
48727;SDS011;34527;45.618;5.130;2022-12-18T08:33:43;57.38;;;27.60;;
48727;SDS011;34527;45.618;5.130;2022-12-18T08:36:09;52.15;;;26.83;;
48727;SDS011;34527;45.618;5.130;2022-12-18T08:38:35;50.28;;;25.98;;
48727;SDS011;34527;45.618;5.130;2022-12-18T08:41:02;56.88;;;27.25;;
48727;SDS011;34527;45.618;5.130;2022-12-18T08:43:30;70.20;;;37.47;;
48727;SDS011;34527;45.618;5.130;2022-12-18T08:46:14;68.47;;;36.92;;
48727;SDS011;34527;45.618;5.130;2022-12-18T08:48:40;68.60;;;37.35;;
48727;SDS011;34527;45.618;5.130;2022-12-18T08:51:06;67.10;;;33.55;;
48727;SDS011;34527;45.618;5.130;2022-12-18T08:53:32;58.78;;;30.38;;
48727;SDS011;34527;45.618;5.130;2022-12-18T08:55:57;50.42;;;26.30;;
48727;SDS011;34527;45.618;5.130;2022-12-18T08:58:23;44.92;;;23.55;;
48727;SDS011;34527;45.618;5.130;2022-12-18T09:00:49;45.90;;;24.27;;
48727;SDS011;34527;45.618;5.130;2022-12-18T09:03:16;57.92;;;29.67;;
48727;SDS011;34527;45.618;5.130;2022-12-18T09:05:43;50.13;;;27.83;;
48727;SDS011;34527;45.618;5.130;2022-12-18T09:08:10;67.78;;;33.97;;
48727;SDS011;34527;45.618;5.130;2022-12-18T09:10:46;71.32;;;33.25;;
48727;SDS011;34527;45.618;5.130;2022-12-18T09:13:13;50.10;;;26.05;;
48727;SDS011;34527;45.618;5.130;2022-12-18T09:15:44;47.22;;;24.88;;
48727;SDS011;34527;45.618;5.130;2022-12-18T09:18:11;46.70;;;26.02;;
48727;SDS011;34527;45.618;5.130;2022-12-18T09:20:38;50.60;;;26.17;;
48727;SDS011;34527;45.618;5.130;2022-12-18T09:23:05;44.88;;;25.67;;
48727;SDS011;34527;45.618;5.130;2022-12-18T09:25:31;52.22;;;27.67;;
48727;SDS011;34527;45.618;5.130;2022-12-18T09:28:17;54.38;;;27.20;;
48727;SDS011;34527;45.618;5.130;2022-12-18T09:30:47;51.45;;;27.55;;
48727;SDS011;34527;45.618;5.130;2022-12-18T09:33:14;48.83;;;26.85;;
48727;SDS011;34527;45.618;5.130;2022-12-18T09:35:41;45.58;;;25.88;;
48727;SDS011;34527;45.618;5.130;2022-12-18T09:38:09;46.88;;;27.30;;
48727;SDS011;34527;45.618;5.130;2022-12-18T09:40:53;51.83;;;28.73;;
48727;SDS011;34527;45.618;5.130;2022-12-18T09:43:49;43.83;;;26.50;;
48727;SDS011;34527;45.618;5.130;2022-12-18T09:46:28;43.88;;;25.88;;
48727;SDS011;34527;45.618;5.130;2022-12-18T09:49:00;45.28;;;25.75;;
48727;SDS011;34527;45.618;5.130;2022-12-18T09:51:35;39.65;;;24.25;;
48727;SDS011;34527;45.618;5.130;2022-12-18T09:54:11;37.33;;;22.13;;
48727;SDS011;34527;45.618;5.130;2022-12-18T09:56:45;39.25;;;22.33;;
48727;SDS011;34527;45.618;5.130;2022-12-18T09:59:19;27.40;;;17.98;;
48727;SDS011;34527;45.618;5.130;2022-12-18T10:01:49;26.15;;;17.15;;
48727;SDS011;34527;45.618;5.130;2022-12-18T10:04:15;26.23;;;16.73;;
48727;SDS011;34527;45.618;5.130;2022-12-18T10:12:34;26.58;;;16.27;;
48727;SDS011;34527;45.618;5.130;2022-12-18T10:18:12;22.13;;;14.30;;
48727;SDS011;34527;45.618;5.130;2022-12-18T10:20:43;28.02;;;15.85;;
48727;SDS011;34527;45.618;5.130;2022-12-18T10:23:23;21.63;;;14.88;;
48727;SDS011;34527;45.618;5.130;2022-12-18T10:28:27;24.48;;;14.32;;
48727;SDS011;34527;45.618;5.130;2022-12-18T10:30:56;22.67;;;12.73;;
48727;SDS011;34527;45.618;5.130;2022-12-18T10:33:23;23.45;;;13.93;;
48727;SDS011;34527;45.618;5.130;2022-12-18T10:35:53;20.35;;;13.13;;
48727;SDS011;34527;45.618;5.130;2022-12-18T10:40:52;18.67;;;12.27;;
48727;SDS011;34527;45.618;5.130;2022-12-18T10:43:21;17.88;;;11.52;;
48727;SDS011;34527;45.618;5.130;2022-12-18T10:46:17;21.70;;;12.60;;
48727;SDS011;34527;45.618;5.130;2022-12-18T10:51:36;21.10;;;13.38;;
48727;SDS011;34527;45.618;5.130;2022-12-18T10:54:06;18.20;;;11.13;;
48727;SDS011;34527;45.618;5.130;2022-12-18T10:56:43;28.55;;;14.23;;
48727;SDS011;34527;45.618;5.130;2022-12-18T10:59:10;20.92;;;12.40;;
48727;SDS011;34527;45.618;5.130;2022-12-18T11:01:54;19.00;;;12.13;;
48727;SDS011;34527;45.618;5.130;2022-12-18T11:04:22;18.20;;;11.88;;
48727;SDS011;34527;45.618;5.130;2022-12-18T11:06:56;13.00;;;7.75;;
48727;SDS011;34527;45.618;5.130;2022-12-18T11:09:35;15.38;;;7.60;;
48727;SDS011;34527;45.618;5.130;2022-12-18T11:12:08;12.20;;;7.30;;
48727;SDS011;34527;45.618;5.130;2022-12-18T11:14:51;15.00;;;9.85;;
48727;SDS011;34527;45.618;5.130;2022-12-18T11:17:31;9.18;;;6.40;;
48727;SDS011;34527;45.618;5.130;2022-12-18T11:20:02;11.50;;;6.00;;
48727;SDS011;34527;45.618;5.130;2022-12-18T11:22:32;10.15;;;5.22;;
48727;SDS011;34527;45.618;5.130;2022-12-18T11:27:28;11.13;;;6.57;;
48727;SDS011;34527;45.618;5.130;2022-12-18T11:30:07;6.35;;;4.53;;
48727;SDS011;34527;45.618;5.130;2022-12-18T11:32:40;8.60;;;4.80;;
48727;SDS011;34527;45.618;5.130;2022-12-18T11:44:30;7.33;;;3.97;;
48727;SDS011;34527;45.618;5.130;2022-12-18T11:47:18;9.70;;;4.50;;
48727;SDS011;34527;45.618;5.130;2022-12-18T11:50:01;8.20;;;4.30;;
48727;SDS011;34527;45.618;5.130;2022-12-18T11:52:35;9.05;;;3.70;;
48727;SDS011;34527;45.618;5.130;2022-12-18T11:58:29;7.80;;;5.45;;
48727;SDS011;34527;45.618;5.130;2022-12-18T12:10:02;10.60;;;4.50;;
48727;SDS011;34527;45.618;5.130;2022-12-18T12:15:17;7.75;;;3.92;;
48727;SDS011;34527;45.618;5.130;2022-12-18T12:17:46;7.32;;;3.72;;
48727;SDS011;34527;45.618;5.130;2022-12-18T12:20:16;6.68;;;3.10;;
48727;SDS011;34527;45.618;5.130;2022-12-18T12:22:47;6.57;;;3.80;;
48727;SDS011;34527;45.618;5.130;2022-12-18T12:25:28;5.68;;;3.13;;
48727;SDS011;34527;45.618;5.130;2022-12-18T12:31:01;5.93;;;3.45;;
48727;SDS011;34527;45.618;5.130;2022-12-18T12:37:23;9.73;;;3.33;;
48727;SDS011;34527;45.618;5.130;2022-12-18T12:39:33;5.82;;;2.88;;
48727;SDS011;34527;45.618;5.130;2022-12-18T12:42:04;4.82;;;2.83;;
48727;SDS011;34527;45.618;5.130;2022-12-18T12:44:56;6.30;;;3.20;;
48727;SDS011;34527;45.618;5.130;2022-12-18T12:47:28;5.85;;;2.45;;
48727;SDS011;34527;45.618;5.130;2022-12-18T12:49:58;5.88;;;3.30;;
48727;SDS011;34527;45.618;5.130;2022-12-18T12:52:32;5.70;;;3.55;;
48727;SDS011;34527;45.618;5.130;2022-12-18T12:55:05;4.38;;;2.60;;
48727;SDS011;34527;45.618;5.130;2022-12-18T12:57:38;4.43;;;2.50;;
48727;SDS011;34527;45.618;5.130;2022-12-18T13:00:14;8.38;;;2.70;;
48727;SDS011;34527;45.618;5.130;2022-12-18T13:02:59;8.95;;;2.70;;
48727;SDS011;34527;45.618;5.130;2022-12-18T13:05:59;7.13;;;3.15;;
48727;SDS011;34527;45.618;5.130;2022-12-18T13:08:30;6.28;;;2.50;;
48727;SDS011;34527;45.618;5.130;2022-12-18T13:10:58;5.57;;;2.60;;
48727;SDS011;34527;45.618;5.130;2022-12-18T13:13:50;9.00;;;2.83;;
48727;SDS011;34527;45.618;5.130;2022-12-18T13:16:24;5.80;;;2.83;;
48727;SDS011;34527;45.618;5.130;2022-12-18T13:18:54;4.80;;;2.47;;
48727;SDS011;34527;45.618;5.130;2022-12-18T13:21:28;4.72;;;2.72;;
48727;SDS011;34527;45.618;5.130;2022-12-18T13:23:56;6.13;;;2.83;;
48727;SDS011;34527;45.618;5.130;2022-12-18T13:26:35;6.75;;;2.85;;
48727;SDS011;34527;45.618;5.130;2022-12-18T13:29:02;5.07;;;2.75;;
48727;SDS011;34527;45.618;5.130;2022-12-18T13:34:27;8.32;;;3.83;;
48727;SDS011;34527;45.618;5.130;2022-12-18T13:36:56;4.03;;;2.35;;
48727;SDS011;34527;45.618;5.130;2022-12-18T13:39:42;5.70;;;3.05;;
48727;SDS011;34527;45.618;5.130;2022-12-18T13:44:35;8.85;;;2.95;;
48727;SDS011;34527;45.618;5.130;2022-12-18T13:47:05;5.18;;;2.60;;
48727;SDS011;34527;45.618;5.130;2022-12-18T13:49:53;3.72;;;2.33;;
48727;SDS011;34527;45.618;5.130;2022-12-18T13:52:26;4.97;;;2.50;;
48727;SDS011;34527;45.618;5.130;2022-12-18T13:54:58;6.22;;;2.40;;
48727;SDS011;34527;45.618;5.130;2022-12-18T13:57:33;4.57;;;2.15;;
48727;SDS011;34527;45.618;5.130;2022-12-18T14:02:47;8.40;;;2.90;;
48727;SDS011;34527;45.618;5.130;2022-12-18T14:07:48;5.15;;;2.33;;
48727;SDS011;34527;45.618;5.130;2022-12-18T14:10:15;4.43;;;2.50;;
48727;SDS011;34527;45.618;5.130;2022-12-18T14:12:44;7.10;;;3.88;;
48727;SDS011;34527;45.618;5.130;2022-12-18T14:17:50;4.63;;;1.95;;
48727;SDS011;34527;45.618;5.130;2022-12-18T14:20:18;4.88;;;2.47;;
48727;SDS011;34527;45.618;5.130;2022-12-18T14:22:45;5.07;;;2.10;;
48727;SDS011;34527;45.618;5.130;2022-12-18T14:25:23;5.60;;;2.58;;
48727;SDS011;34527;45.618;5.130;2022-12-18T14:27:51;5.68;;;2.20;;
48727;SDS011;34527;45.618;5.130;2022-12-18T14:33:03;3.40;;;1.75;;
48727;SDS011;34527;45.618;5.130;2022-12-18T14:35:38;6.47;;;2.35;;
48727;SDS011;34527;45.618;5.130;2022-12-18T14:38:10;4.28;;;1.90;;
48727;SDS011;34527;45.618;5.130;2022-12-18T14:40:56;3.78;;;2.17;;
48727;SDS011;34527;45.618;5.130;2022-12-18T14:43:28;6.72;;;2.45;;
48727;SDS011;34527;45.618;5.130;2022-12-18T14:45:56;4.05;;;2.25;;
48727;SDS011;34527;45.618;5.130;2022-12-18T14:48:39;6.97;;;2.63;;
48727;SDS011;34527;45.618;5.130;2022-12-18T14:51:15;3.20;;;1.92;;
48727;SDS011;34527;45.618;5.130;2022-12-18T14:53:44;4.00;;;2.17;;
48727;SDS011;34527;45.618;5.130;2022-12-18T14:58:49;5.28;;;2.50;;
48727;SDS011;34527;45.618;5.130;2022-12-18T15:01:19;3.38;;;2.00;;
48727;SDS011;34527;45.618;5.130;2022-12-18T15:03:48;4.57;;;2.17;;
48727;SDS011;34527;45.618;5.130;2022-12-18T15:06:30;6.22;;;2.80;;
48727;SDS011;34527;45.618;5.130;2022-12-18T15:08:57;2.63;;;2.22;;
48727;SDS011;34527;45.618;5.130;2022-12-18T15:11:54;5.50;;;2.67;;
48727;SDS011;34527;45.618;5.130;2022-12-18T15:14:33;3.88;;;2.25;;
48727;SDS011;34527;45.618;5.130;2022-12-18T15:19:48;4.82;;;2.60;;
48727;SDS011;34527;45.618;5.130;2022-12-18T15:24:44;4.68;;;2.58;;
48727;SDS011;34527;45.618;5.130;2022-12-18T15:30:03;5.15;;;3.40;;
48727;SDS011;34527;45.618;5.130;2022-12-18T15:32:45;6.93;;;4.30;;
48727;SDS011;34527;45.618;5.130;2022-12-18T15:37:45;11.00;;;5.63;;
48727;SDS011;34527;45.618;5.130;2022-12-18T15:40:12;4.95;;;3.50;;
48727;SDS011;34527;45.618;5.130;2022-12-18T15:42:40;5.43;;;3.50;;
48727;SDS011;34527;45.618;5.130;2022-12-18T15:45:25;5.95;;;3.60;;
48727;SDS011;34527;45.618;5.130;2022-12-18T15:47:51;6.03;;;3.25;;
48727;SDS011;34527;45.618;5.130;2022-12-18T15:50:17;4.30;;;3.20;;
48727;SDS011;34527;45.618;5.130;2022-12-18T15:52:43;6.20;;;3.53;;
48727;SDS011;34527;45.618;5.130;2022-12-18T15:55:12;4.22;;;2.50;;
48727;SDS011;34527;45.618;5.130;2022-12-18T15:57:58;7.78;;;4.53;;
48727;SDS011;34527;45.618;5.130;2022-12-18T16:00:24;5.45;;;2.63;;
48727;SDS011;34527;45.618;5.130;2022-12-18T16:02:51;4.65;;;3.13;;
48727;SDS011;34527;45.618;5.130;2022-12-18T16:05:17;9.52;;;5.60;;
48727;SDS011;34527;45.618;5.130;2022-12-18T16:07:44;3.45;;;3.00;;
48727;SDS011;34527;45.618;5.130;2022-12-18T16:10:10;10.25;;;4.75;;
48727;SDS011;34527;45.618;5.130;2022-12-18T16:12:36;7.13;;;4.90;;
48727;SDS011;34527;45.618;5.130;2022-12-18T16:15:03;14.90;;;8.70;;
48727;SDS011;34527;45.618;5.130;2022-12-18T16:17:30;5.45;;;2.95;;
48727;SDS011;34527;45.618;5.130;2022-12-18T16:19:57;12.90;;;5.38;;
48727;SDS011;34527;45.618;5.130;2022-12-18T16:22:23;4.20;;;2.47;;
48727;SDS011;34527;45.618;5.130;2022-12-18T16:24:52;5.22;;;2.75;;
48727;SDS011;34527;45.618;5.130;2022-12-18T16:27:18;5.35;;;2.92;;
48727;SDS011;34527;45.618;5.130;2022-12-18T16:29:45;6.07;;;3.30;;
48727;SDS011;34527;45.618;5.130;2022-12-18T16:32:12;7.03;;;2.95;;
48727;SDS011;34527;45.618;5.130;2022-12-18T16:34:40;5.22;;;3.63;;
48727;SDS011;34527;45.618;5.130;2022-12-18T16:37:07;8.18;;;4.63;;